Stormscope vs Radar Satellite

Pour info, le METAR à LFML indiquait:
131230Z 13008KT 9999 FEW040 BKN120 27/21 Q1015 TEMPO SHRA=
131330Z 30007KT 9999 SHRA FEW019 BKN060 BKN100 26/23 Q1014 TEMPO SHRA

Cet article a été publié dans Uncategorized. Ajoutez ce permalien à vos favoris.

Laisser un commentaire

Entrez vos coordonnées ci-dessous ou cliquez sur une icône pour vous connecter:

Logo WordPress.com

Vous commentez à l'aide de votre compte WordPress.com. Déconnexion /  Changer )

Photo Google+

Vous commentez à l'aide de votre compte Google+. Déconnexion /  Changer )

Image Twitter

Vous commentez à l'aide de votre compte Twitter. Déconnexion /  Changer )

Photo Facebook

Vous commentez à l'aide de votre compte Facebook. Déconnexion /  Changer )

w

Connexion à %s